Time;durP1;ratioP1;P1;durP2;ratioP2;P2;SDS_P1;SDS_P2;PMS_P1;PMS_P2;Temp;Humidity;BMP_temperature;BMP_pressure;BME280_temperature;BME280_humidity;BME280_pressure;Samples;Min_cycle;Max_cycle;Signal;HPM_P1;HPM_P2
2023/04/24 00:00:05;;;;;;;1.87;0.90;;;11.20;99.90;;;;;;5083024;28;20182;-31
2023/04/24 00:02:32;;;;;;;1.40;0.90;;;11.30;99.90;;;;;;5091950;28;20247;-29
2023/04/24 00:05:02;;;;;;;1.70;0.93;;;11.20;99.90;;;;;;5090526;28;20205;-31
2023/04/24 00:07:31;;;;;;;1.23;1.00;;;11.30;99.90;;;;;;5090068;28;20213;-30
2023/04/24 00:09:57;;;;;;;0.80;0.70;;;11.30;99.90;;;;;;5090450;28;20182;-30
2023/04/24 00:12:24;;;;;;;1.37;0.80;;;11.40;99.90;;;;;;5090752;28;20202;-30
2023/04/24 00:14:50;;;;;;;1.40;0.90;;;11.40;99.90;;;;;;5090282;28;20211;-31
2023/04/24 00:17:19;;;;;;;1.33;0.90;;;11.50;99.90;;;;;;5092055;28;20272;-30
2023/04/24 00:19:50;;;;;;;2.97;0.97;;;11.50;99.90;;;;;;5090211;28;20319;-29
2023/04/24 00:22:17;;;;;;;1.73;0.80;;;11.50;99.90;;;;;;5073600;28;20183;-30
2023/04/24 00:24:43;;;;;;;3.10;0.90;;;11.50;99.90;;;;;;5073243;28;20214;-31
2023/04/24 00:27:09;;;;;;;1.00;0.90;;;11.50;99.90;;;;;;5073267;28;20181;-31
2023/04/24 00:29:35;;;;;;;1.23;1.03;;;11.50;99.90;;;;;;5078134;28;20175;-31
2023/04/24 00:32:00;;;;;;;0.80;0.80;;;11.60;99.90;;;;;;5089068;28;20171;-29
2023/04/24 00:34:26;;;;;;;2.80;0.93;;;11.50;99.90;;;;;;5089276;28;20229;-29
2023/04/24 00:36:52;;;;;;;1.83;0.90;;;11.60;99.90;;;;;;5076752;28;20181;-29
2023/04/24 00:39:22;;;;;;;2.30;0.90;;;11.60;99.90;;;;;;5056560;28;20185;-30
2023/04/24 00:41:50;;;;;;;0.80;0.80;;;11.60;99.90;;;;;;5089918;28;20177;-30
2023/04/24 00:44:16;;;;;;;1.13;0.80;;;11.60;99.90;;;;;;5089058;28;20209;-30
2023/04/24 00:46:42;;;;;;;0.90;0.70;;;11.60;99.90;;;;;;5090355;28;20277;-31
2023/04/24 00:49:08;;;;;;;2.10;0.90;;;11.70;99.90;;;;;;5089740;28;20181;-31
2023/04/24 00:51:34;;;;;;;2.73;0.80;;;11.60;99.90;;;;;;5090240;28;20175;-31
2023/04/24 00:54:00;;;;;;;1.03;0.87;;;11.60;99.90;;;;;;5078022;28;20226;-32
2023/04/24 00:56:27;;;;;;;2.33;1.40;;;11.70;99.90;;;;;;5078831;28;20254;-30
2023/04/24 00:58:53;;;;;;;2.53;1.03;;;11.70;99.90;;;;;;5051645;28;20577;-29
2023/04/24 01:01:20;;;;;;;1.83;0.87;;;11.60;99.90;;;;;;5083350;28;20186;-31
2023/04/24 01:03:47;;;;;;;1.63;0.90;;;11.60;99.90;;;;;;5072370;28;20192;-31
2023/04/24 01:06:13;;;;;;;1.33;0.90;;;11.60;99.90;;;;;;5088601;28;20279;-30
2023/04/24 01:08:41;;;;;;;3.03;0.93;;;11.60;99.90;;;;;;5089555;28;20174;-30
2023/04/24 01:11:07;;;;;;;0.97;0.90;;;11.50;99.90;;;;;;5089492;28;20184;-30
2023/04/24 01:13:34;;;;;;;1.70;0.87;;;11.50;99.90;;;;;;5072420;28;20202;-30
2023/04/24 01:16:00;;;;;;;2.83;0.90;;;11.40;99.90;;;;;;5090639;28;20210;-32
2023/04/24 01:18:27;;;;;;;3.07;0.83;;;11.40;99.90;;;;;;5090831;28;20198;-30
2023/04/24 01:20:57;;;;;;;0.90;0.90;;;11.30;99.90;;;;;;5089620;28;20187;-30
2023/04/24 01:23:23;;;;;;;1.50;1.00;;;11.30;99.90;;;;;;5090628;28;20682;-30
2023/04/24 01:25:51;;;;;;;1.23;0.93;;;11.30;99.90;;;;;;5090244;28;20250;-30
2023/04/24 01:28:37;;;;;;;1.00;0.90;;;11.30;99.90;;;;;;5074124;28;20187;-30
2023/04/24 01:31:05;;;;;;;0.93;0.80;;;11.30;99.90;;;;;;5084902;28;20185;-31
2023/04/24 01:34:24;;;;;;;1.87;1.27;;;11.40;99.90;;;;;;5088831;28;20248;-31
2023/04/24 01:36:50;;;;;;;1.17;0.90;;;11.40;99.90;;;;;;5058356;28;20177;-32
2023/04/24 01:39:16;;;;;;;2.07;1.00;;;11.40;99.90;;;;;;5041735;28;20197;-30
2023/04/24 01:41:42;;;;;;;1.47;1.00;;;11.20;99.90;;;;;;5062080;28;20193;-30
2023/04/24 01:44:08;;;;;;;1.30;1.00;;;11.20;99.90;;;;;;5049421;28;20249;-31
2023/04/24 01:46:35;;;;;;;2.07;1.20;;;11.20;99.90;;;;;;5050608;28;20204;-30
2023/04/24 01:49:03;;;;;;;3.37;1.23;;;11.20;99.90;;;;;;5049195;28;20188;-31
2023/04/24 01:51:29;;;;;;;0.93;0.70;;;11.20;99.90;;;;;;5049297;28;20194;-31
2023/04/24 01:53:56;;;;;;;0.90;0.80;;;11.20;99.90;;;;;;5049297;28;20290;-30
2023/04/24 01:56:22;;;;;;;1.00;0.90;;;11.20;99.90;;;;;;5049515;28;20343;-30
2023/04/24 01:58:50;;;;;;;2.07;1.07;;;11.30;99.90;;;;;;5038877;28;20250;-30
2023/04/24 02:01:24;;;;;;;3.53;1.37;;;11.20;99.90;;;;;;5034296;28;20178;-30
2023/04/24 02:03:50;;;;;;;1.33;1.20;;;11.30;99.90;;;;;;5049690;28;20260;-30
2023/04/24 02:06:16;;;;;;;1.07;0.97;;;11.20;99.90;;;;;;5050183;28;20215;-30
2023/04/24 02:08:42;;;;;;;1.93;1.00;;;11.20;99.90;;;;;;5049508;28;20208;-29
2023/04/24 02:11:11;;;;;;;1.90;1.10;;;11.20;99.90;;;;;;5054263;28;20171;-29
2023/04/24 02:13:36;;;;;;;1.83;1.00;;;11.20;99.90;;;;;;5061601;28;20206;-31
2023/04/24 02:16:02;;;;;;;2.60;1.30;;;11.20;99.90;;;;;;5054365;28;20187;-31
2023/04/24 02:18:29;;;;;;;2.27;1.00;;;11.20;99.90;;;;;;5053182;28;20279;-30
2023/04/24 02:20:56;;;;;;;1.10;1.00;;;11.20;99.90;;;;;;5052875;28;20194;-30
2023/04/24 02:23:22;;;;;;;1.27;1.17;;;11.20;99.90;;;;;;5035068;28;20191;-31
2023/04/24 02:25:48;;;;;;;1.10;1.10;;;11.20;99.90;;;;;;5042610;28;20248;-31
2023/04/24 02:28:16;;;;;;;1.80;1.10;;;11.20;99.90;;;;;;5053398;28;20182;-30
2023/04/24 02:30:42;;;;;;;1.03;0.90;;;11.20;99.90;;;;;;5054684;28;20183;-30
2023/04/24 02:33:08;;;;;;;1.90;1.20;;;11.20;99.90;;;;;;5054246;28;20203;-30
2023/04/24 02:35:34;;;;;;;1.20;1.00;;;11.10;99.90;;;;;;5051913;28;20210;-32
2023/04/24 02:38:00;;;;;;;1.40;1.20;;;11.10;99.90;;;;;;5069193;28;20182;-30
2023/04/24 02:40:26;;;;;;;2.93;1.00;;;11.10;99.90;;;;;;5052741;28;20187;-29
2023/04/24 02:42:51;;;;;;;1.40;1.10;;;11.10;99.90;;;;;;5036462;28;20187;-30
2023/04/24 02:45:17;;;;;;;1.50;1.10;;;11.10;99.90;;;;;;5052156;28;20214;-30
2023/04/24 02:47:43;;;;;;;2.03;1.00;;;11.10;99.90;;;;;;5036017;28;20194;-32
2023/04/24 02:50:09;;;;;;;2.00;0.77;;;11.10;99.90;;;;;;5052701;28;20192;-29
2023/04/24 02:52:35;;;;;;;2.33;0.83;;;11.10;99.90;;;;;;5035688;28;20566;-30
2023/04/24 02:55:02;;;;;;;2.50;0.90;;;11.10;99.90;;;;;;5051850;28;20203;-30
2023/04/24 02:57:27;;;;;;;2.47;1.10;;;11.10;99.90;;;;;;5052581;28;20176;-30
2023/04/24 02:59:53;;;;;;;1.63;0.77;;;11.00;99.90;;;;;;5051216;28;20180;-29
2023/04/24 03:02:20;;;;;;;1.33;0.90;;;11.10;99.90;;;;;;5057907;28;20233;-30
2023/04/24 03:04:48;;;;;;;1.80;0.80;;;11.00;99.90;;;;;;5051625;28;20219;-30
2023/04/24 03:07:14;;;;;;;2.63;0.90;;;11.00;99.90;;;;;;5052268;28;20229;-29
2023/04/24 03:09:40;;;;;;;0.97;0.80;;;11.00;99.90;;;;;;5036262;28;20649;-30
2023/04/24 03:12:06;;;;;;;2.57;1.00;;;10.90;99.90;;;;;;5035702;28;20171;-31
2023/04/24 03:14:32;;;;;;;1.20;0.90;;;10.90;99.90;;;;;;5034508;28;20564;-30
2023/04/24 03:16:58;;;;;;;0.73;0.73;;;10.80;99.90;;;;;;5052631;28;20193;-29
2023/04/24 03:19:24;;;;;;;1.63;1.00;;;10.80;99.90;;;;;;5055999;28;20187;-30
2023/04/24 03:22:11;;;;;;;1.20;0.80;;;10.80;99.90;;;;;;5034639;28;20177;-30
2023/04/24 03:24:38;;;;;;;1.53;1.10;;;10.70;99.90;;;;;;5046023;28;20206;-30
2023/04/24 03:27:04;;;;;;;1.87;1.10;;;10.70;99.90;;;;;;5035388;28;20187;-30
2023/04/24 03:29:51;;;;;;;1.20;1.07;;;10.60;99.90;;;;;;5052783;28;20233;-30
2023/04/24 03:32:18;;;;;;;1.90;1.00;;;10.60;99.90;;;;;;5058005;28;20209;-31
2023/04/24 03:34:46;;;;;;;1.60;0.83;;;10.60;99.90;;;;;;5038080;28;20231;-31
2023/04/24 03:37:14;;;;;;;1.53;0.80;;;10.50;99.90;;;;;;5051345;28;20191;-30
2023/04/24 03:39:46;;;;;;;0.90;0.70;;;10.50;99.90;;;;;;5049566;28;20189;-30
2023/04/24 03:42:15;;;;;;;3.93;0.80;;;10.50;99.90;;;;;;5030270;28;20284;-31
2023/04/24 03:44:54;;;;;;;0.80;0.70;;;10.40;99.90;;;;;;5051173;28;20201;-30
2023/04/24 03:47:24;;;;;;;1.80;1.20;;;10.40;99.90;;;;;;5051314;28;20197;-29
2023/04/24 03:50:04;;;;;;;0.60;0.60;;;10.30;99.90;;;;;;5049805;28;20569;-30
2023/04/24 03:52:33;;;;;;;1.67;0.70;;;10.30;99.90;;;;;;5033999;28;20193;-29
2023/04/24 03:54:59;;;;;;;1.27;0.70;;;10.30;99.90;;;;;;5057670;28;20209;-30
2023/04/24 03:57:27;;;;;;;0.73;0.67;;;10.30;99.90;;;;;;5037533;28;20186;-32
2023/04/24 04:00:07;;;;;;;0.73;0.73;;;10.30;99.90;;;;;;5033063;28;20255;-31
2023/04/24 04:02:40;;;;;;;1.00;0.80;;;10.30;99.90;;;;;;5051319;28;20720;-29
2023/04/24 04:05:08;;;;;;;1.70;0.70;;;10.20;99.90;;;;;;5046642;28;20217;-29
2023/04/24 04:07:34;;;;;;;2.00;1.00;;;10.20;99.90;;;;;;5034382;28;20246;-30
2023/04/24 04:10:00;;;;;;;0.77;0.70;;;10.20;99.90;;;;;;5034249;28;20201;-30
2023/04/24 04:12:26;;;;;;;2.67;1.07;;;10.20;99.90;;;;;;5037061;28;20179;-30
2023/04/24 04:14:52;;;;;;;5.03;1.10;;;10.20;99.90;;;;;;5035801;28;20217;-29
2023/04/24 04:17:19;;;;;;;1.80;0.97;;;10.10;99.90;;;;;;5051201;28;20177;-30
2023/04/24 04:19:45;;;;;;;1.63;0.90;;;10.10;99.90;;;;;;5050828;28;20196;-29
2023/04/24 04:22:10;;;;;;;1.00;0.90;;;10.10;99.90;;;;;;5034495;28;20193;-29
2023/04/24 04:24:46;;;;;;;0.87;0.87;;;10.20;99.90;;;;;;5052457;28;20209;-30
2023/04/24 04:27:12;;;;;;;3.70;0.90;;;10.20;99.90;;;;;;5050867;28;20406;-31
2023/04/24 04:29:52;;;;;;;2.00;0.97;;;10.20;99.90;;;;;;5055570;28;20182;-30
2023/04/24 04:32:19;;;;;;;2.90;1.10;;;10.20;99.90;;;;;;5050117;28;20192;-30
2023/04/24 04:34:49;;;;;;;1.37;1.20;;;10.20;99.90;;;;;;5050579;28;20693;-31
2023/04/24 04:37:16;;;;;;;2.33;1.20;;;10.20;99.90;;;;;;5051033;28;20190;-31
2023/04/24 04:40:01;;;;;;;2.30;1.20;;;10.30;99.90;;;;;;5051151;28;20224;-30
2023/04/24 04:42:39;;;;;;;3.97;1.57;;;10.30;99.90;;;;;;5050612;28;20616;-31
2023/04/24 04:45:11;;;;;;;2.30;1.40;;;10.30;99.90;;;;;;5049662;28;20274;-29
2023/04/24 04:47:48;;;;;;;1.77;1.07;;;10.20;99.90;;;;;;5056565;28;20220;-29
2023/04/24 04:50:14;;;;;;;3.17;1.93;;;10.20;99.90;;;;;;5034180;28;20653;-30
2023/04/24 04:52:40;;;;;;;1.90;1.10;;;10.20;99.90;;;;;;5048300;28;20311;-30
2023/04/24 04:55:19;;;;;;;2.80;1.10;;;10.20;99.90;;;;;;5043342;28;20202;-30
2023/04/24 04:58:04;;;;;;;2.20;1.20;;;10.20;99.90;;;;;;5057264;28;20204;-31
2023/04/24 05:00:35;;;;;;;2.17;1.37;;;10.10;99.90;;;;;;5033618;28;20193;-31
2023/04/24 05:03:02;;;;;;;1.30;1.20;;;10.10;99.90;;;;;;5049984;28;20190;-30
2023/04/24 05:05:29;;;;;;;2.67;1.10;;;10.00;99.90;;;;;;5049592;28;20216;-30
2023/04/24 05:07:55;;;;;;;2.13;1.40;;;10.00;99.90;;;;;;5033346;28;20216;-32
2023/04/24 05:10:21;;;;;;;1.73;1.53;;;10.00;99.90;;;;;;5050944;28;20188;-30
2023/04/24 05:12:49;;;;;;;1.50;1.30;;;10.00;99.90;;;;;;5049945;28;20188;-31
2023/04/24 05:15:15;;;;;;;1.33;1.17;;;9.90;99.90;;;;;;5033517;28;20289;-31
2023/04/24 05:17:43;;;;;;;1.50;1.00;;;9.90;99.90;;;;;;5049869;28;20193;-30
2023/04/24 05:20:10;;;;;;;1.27;1.17;;;9.90;99.90;;;;;;5032976;28;20173;-30
2023/04/24 05:22:37;;;;;;;3.10;1.47;;;9.90;99.90;;;;;;5051868;28;20178;-32
2023/04/24 05:25:03;;;;;;;1.83;1.50;;;9.90;99.90;;;;;;5032813;28;20213;-29
2023/04/24 05:27:53;;;;;;;2.90;2.00;;;9.90;99.90;;;;;;5039529;28;20202;-30
2023/04/24 05:30:19;;;;;;;2.40;1.60;;;9.90;99.90;;;;;;5043643;28;20182;-30
2023/04/24 05:32:45;;;;;;;2.53;1.70;;;9.90;99.90;;;;;;5049774;28;20181;-30
2023/04/24 05:35:12;;;;;;;3.13;1.40;;;9.90;99.90;;;;;;5046954;28;20241;-29
2023/04/24 05:37:38;;;;;;;2.60;1.57;;;9.90;99.90;;;;;;5019958;28;20209;-30
2023/04/24 05:40:05;;;;;;;3.00;1.67;;;9.90;99.90;;;;;;5052902;28;20186;-31
2023/04/24 05:42:32;;;;;;;3.50;2.03;;;9.90;99.90;;;;;;5040464;28;20634;-29
2023/04/24 05:44:57;;;;;;;2.83;2.20;;;10.00;99.90;;;;;;5049164;28;20209;-30
2023/04/24 05:47:23;;;;;;;4.17;2.33;;;10.00;99.90;;;;;;5041312;28;20248;-30
2023/04/24 05:49:50;;;;;;;4.03;2.43;;;10.00;99.90;;;;;;5039750;28;20671;-30
2023/04/24 05:52:16;;;;;;;2.33;2.00;;;10.00;99.90;;;;;;5049747;28;20202;-30
2023/04/24 05:54:42;;;;;;;2.50;1.83;;;10.00;99.90;;;;;;5058214;28;20297;-30
2023/04/24 05:57:11;;;;;;;1.93;1.80;;;10.00;99.90;;;;;;5045753;28;20236;-30
2023/04/24 05:59:57;;;;;;;5.07;1.87;;;10.00;99.90;;;;;;5051667;28;20190;-29
2023/04/24 06:02:24;;;;;;;3.40;2.37;;;10.00;99.90;;;;;;5060414;28;20229;-31
2023/04/24 06:04:51;;;;;;;2.93;2.13;;;10.00;99.90;;;;;;5039319;28;20296;-30
2023/04/24 06:07:17;;;;;;;4.30;2.20;;;10.00;99.90;;;;;;5039068;28;20185;-29
2023/04/24 06:09:44;;;;;;;3.57;2.50;;;9.90;99.90;;;;;;5062150;28;20178;-30
2023/04/24 06:12:11;;;;;;;2.83;2.17;;;9.90;99.90;;;;;;5053471;28;20244;-30
2023/04/24 06:15:00;;;;;;;1.70;1.60;;;9.80;99.90;;;;;;5045333;28;20217;-29
2023/04/24 06:17:39;;;;;;;3.10;1.80;;;9.80;99.90;;;;;;5035859;28;20251;-30
2023/04/24 06:20:06;;;;;;;2.10;1.90;;;9.80;99.90;;;;;;5053269;28;20646;-31
2023/04/24 06:22:32;;;;;;;4.33;2.20;;;9.90;99.90;;;;;;5062279;28;20193;-30
2023/04/24 06:24:59;;;;;;;2.87;1.67;;;9.90;99.90;;;;;;5036536;28;20210;-29
2023/04/24 06:27:25;;;;;;;2.07;1.87;;;9.90;99.90;;;;;;5036384;28;20177;-30
2023/04/24 06:29:54;;;;;;;4.97;3.10;;;10.00;99.90;;;;;;5051994;28;20204;-30
2023/04/24 06:32:24;;;;;;;3.57;2.50;;;10.10;99.90;;;;;;5052671;28;20228;-30
2023/04/24 06:34:52;;;;;;;2.53;2.10;;;10.20;99.90;;;;;;5052432;28;20221;-30
2023/04/24 06:37:20;;;;;;;2.50;1.80;;;10.40;99.90;;;;;;5053027;28;20556;-29
2023/04/24 06:39:46;;;;;;;2.20;1.93;;;10.50;99.90;;;;;;5052768;28;20182;-30
2023/04/24 06:42:12;;;;;;;4.30;1.80;;;10.60;99.90;;;;;;5053051;28;20193;-29
2023/04/24 06:44:40;;;;;;;3.70;1.70;;;10.70;99.90;;;;;;5053244;28;20198;-30
2023/04/24 06:47:10;;;;;;;3.07;2.10;;;10.80;99.90;;;;;;5053767;28;20202;-30
2023/04/24 06:49:37;;;;;;;3.17;2.17;;;11.00;99.90;;;;;;5036406;28;20195;-30
2023/04/24 06:52:03;;;;;;;1.97;1.67;;;11.10;99.90;;;;;;5053736;28;20205;-29
2023/04/24 06:54:29;;;;;;;2.00;1.80;;;11.20;99.90;;;;;;5052282;28;20240;-30
2023/04/24 06:56:57;;;;;;;1.80;1.70;;;11.30;99.90;;;;;;5058526;28;20190;-30
2023/04/24 06:59:24;;;;;;;2.20;1.93;;;11.50;99.90;;;;;;5052600;28;20184;-31
2023/04/24 07:01:51;;;;;;;3.47;2.17;;;11.50;99.90;;;;;;5053874;28;20240;-29
2023/04/24 07:04:17;;;;;;;3.50;2.40;;;11.60;99.90;;;;;;5052136;28;20269;-29
2023/04/24 07:06:45;;;;;;;3.47;2.00;;;11.60;99.90;;;;;;5052332;28;20233;-29
2023/04/24 07:09:11;;;;;;;3.20;1.70;;;11.50;99.90;;;;;;5055329;28;20233;-29
2023/04/24 07:11:39;;;;;;;1.37;1.27;;;11.50;99.90;;;;;;5036416;28;20188;-29
2023/04/24 07:14:05;;;;;;;2.17;1.50;;;11.40;99.90;;;;;;5028518;28;20313;-30
2023/04/24 07:16:31;;;;;;;2.00;1.40;;;11.30;99.90;;;;;;5063298;28;20183;-30
2023/04/24 07:18:57;;;;;;;3.37;1.43;;;11.30;99.90;;;;;;5045532;28;20179;-30
2023/04/24 07:21:33;;;;;;;2.23;1.30;;;11.30;99.90;;;;;;5047601;28;20198;-29
2023/04/24 07:23:59;;;;;;;1.30;1.20;;;11.20;99.90;;;;;;5060630;28;20236;-31
2023/04/24 07:26:26;;;;;;;2.10;1.43;;;11.20;99.90;;;;;;5044270;28;20212;-29
2023/04/24 07:28:52;;;;;;;1.87;1.60;;;11.20;99.90;;;;;;5042107;28;20189;-30
2023/04/24 07:31:18;;;;;;;4.13;1.70;;;11.40;99.90;;;;;;5044622;28;20183;-30
2023/04/24 07:33:47;;;;;;;1.30;1.20;;;11.50;99.90;;;;;;5047024;28;20325;-29
2023/04/24 07:36:18;;;;;;;2.90;1.57;;;11.50;99.90;;;;;;5049040;28;20198;-30
2023/04/24 07:38:48;;;;;;;3.23;1.63;;;11.60;99.90;;;;;;5045793;28;20201;-30
2023/04/24 07:41:14;;;;;;;2.43;1.60;;;11.80;99.90;;;;;;5031309;28;20195;-30
2023/04/24 07:43:40;;;;;;;2.00;1.50;;;11.70;99.90;;;;;;5045478;28;20226;-30
2023/04/24 07:46:08;;;;;;;2.33;1.30;;;11.80;99.90;;;;;;5046561;28;20223;-30
2023/04/24 07:48:35;;;;;;;2.03;1.53;;;11.80;99.90;;;;;;5047271;28;20188;-30
2023/04/24 07:51:01;;;;;;;1.20;1.10;;;11.80;99.90;;;;;;5044157;28;20276;-30
2023/04/24 07:53:27;;;;;;;1.90;1.40;;;11.70;99.90;;;;;;5046729;28;20175;-29
2023/04/24 07:55:55;;;;;;;1.43;1.20;;;11.60;99.90;;;;;;5044149;28;20194;-30
2023/04/24 07:58:21;;;;;;;1.57;1.47;;;11.60;99.90;;;;;;5043417;28;20189;-30
2023/04/24 08:00:47;;;;;;;3.20;1.57;;;11.70;99.90;;;;;;5043176;28;20179;-29
2023/04/24 08:03:14;;;;;;;2.57;1.30;;;11.70;99.90;;;;;;5045532;28;20183;-29
2023/04/24 08:05:41;;;;;;;2.00;1.60;;;11.70;99.90;;;;;;5044427;28;20210;-30
2023/04/24 08:08:08;;;;;;;2.47;1.70;;;11.70;99.90;;;;;;5044914;28;20179;-30
2023/04/24 08:10:33;;;;;;;2.40;1.47;;;11.60;99.90;;;;;;5044825;28;20197;-30
2023/04/24 08:12:59;;;;;;;1.53;1.37;;;11.60;99.90;;;;;;5055712;28;20631;-29
2023/04/24 08:15:25;;;;;;;1.90;1.80;;;11.50;99.90;;;;;;5047553;28;20263;-31
2023/04/24 08:17:51;;;;;;;2.10;1.60;;;11.50;99.90;;;;;;5037106;28;20177;-29
2023/04/24 08:20:17;;;;;;;2.63;1.60;;;11.60;99.90;;;;;;5032285;28;20179;-31
2023/04/24 08:22:43;;;;;;;2.47;1.60;;;11.70;99.90;;;;;;5048900;28;20273;-29
2023/04/24 08:25:10;;;;;;;3.87;1.80;;;11.90;99.90;;;;;;5052232;28;20202;-30
2023/04/24 08:27:36;;;;;;;2.13;1.50;;;11.90;99.90;;;;;;5048698;28;20182;-29
2023/04/24 08:30:04;;;;;;;2.97;2.00;;;11.90;99.90;;;;;;5049975;28;20636;-30
2023/04/24 08:32:30;;;;;;;1.90;1.70;;;11.80;99.90;;;;;;5050504;28;20191;-29
2023/04/24 08:34:59;;;;;;;2.03;1.60;;;11.80;99.90;;;;;;5035316;28;20289;-30
2023/04/24 08:37:27;;;;;;;2.93;1.63;;;11.80;99.90;;;;;;5051151;28;20259;-31
2023/04/24 08:39:53;;;;;;;2.30;1.50;;;12.10;99.90;;;;;;5054017;28;20272;-29
2023/04/24 08:42:20;;;;;;;3.67;1.70;;;12.20;99.90;;;;;;5035323;28;20186;-30
2023/04/24 08:44:48;;;;;;;2.07;1.50;;;12.30;99.90;;;;;;5036499;28;20204;-29
2023/04/24 08:47:15;;;;;;;2.23;1.37;;;12.60;99.90;;;;;;5051289;28;20256;-29
2023/04/24 08:49:42;;;;;;;3.30;1.63;;;12.90;99.90;;;;;;5051414;28;20185;-30
2023/04/24 08:52:08;;;;;;;2.73;1.50;;;13.10;99.90;;;;;;5054314;28;20275;-30
2023/04/24 08:54:35;;;;;;;2.00;1.70;;;13.00;99.90;;;;;;5049414;28;20291;-29
2023/04/24 08:57:03;;;;;;;4.13;1.73;;;12.80;99.90;;;;;;5039435;28;20271;-30
2023/04/24 08:59:30;;;;;;;3.63;1.67;;;12.50;99.90;;;;;;5033219;28;20187;-30
2023/04/24 09:01:57;;;;;;;1.83;1.57;;;12.40;99.90;;;;;;5050889;28;20281;-30
2023/04/24 09:04:26;;;;;;;2.17;1.47;;;12.60;99.90;;;;;;5050718;28;20201;-30
2023/04/24 09:06:57;;;;;;;1.80;1.30;;;12.90;99.90;;;;;;5065977;28;20305;-30
2023/04/24 09:09:24;;;;;;;2.20;1.30;;;13.10;99.90;;;;;;5049570;28;20598;-29
2023/04/24 09:11:53;;;;;;;3.03;1.60;;;13.30;99.90;;;;;;5049381;28;20185;-30
2023/04/24 09:14:20;;;;;;;2.13;1.30;;;13.10;99.90;;;;;;5052573;28;20269;-29
2023/04/24 09:16:46;;;;;;;3.33;1.40;;;13.20;99.90;;;;;;5054661;28;20272;-30
2023/04/24 09:19:12;;;;;;;1.67;1.33;;;13.10;99.90;;;;;;5048913;28;20253;-31
2023/04/24 09:21:38;;;;;;;2.87;1.50;;;13.10;99.90;;;;;;5053938;28;20287;-32
2023/04/24 09:24:07;;;;;;;2.60;1.37;;;12.90;99.90;;;;;;5048911;28;20213;-31
2023/04/24 09:26:36;;;;;;;3.23;1.50;;;12.60;99.90;;;;;;5050580;28;20209;-31
2023/04/24 09:29:03;;;;;;;1.47;1.30;;;12.50;99.90;;;;;;5049530;28;20272;-30
2023/04/24 09:31:30;;;;;;;1.80;1.30;;;12.40;99.90;;;;;;5049967;28;20175;-31
2023/04/24 09:33:55;;;;;;;2.97;1.80;;;12.40;99.90;;;;;;5053116;28;20211;-31
2023/04/24 09:36:39;;;;;;;1.63;1.30;;;12.60;99.90;;;;;;5049252;28;20188;-31
2023/04/24 09:39:08;;;;;;;1.67;1.27;;;12.60;99.90;;;;;;5049295;28;20238;-31
2023/04/24 09:41:34;;;;;;;3.07;1.30;;;12.50;99.90;;;;;;5050619;28;20190;-31
2023/04/24 09:44:23;;;;;;;2.40;1.40;;;12.50;99.90;;;;;;5049105;28;20206;-30
2023/04/24 09:46:53;;;;;;;1.97;1.40;;;12.40;99.90;;;;;;5048918;28;20245;-31
2023/04/24 09:49:27;;;;;;;1.87;1.30;;;12.50;99.90;;;;;;5053917;28;20220;-31
2023/04/24 09:52:07;;;;;;;2.50;1.40;;;12.30;99.90;;;;;;5049181;28;20219;-31
2023/04/24 09:54:33;;;;;;;1.80;1.50;;;12.10;99.90;;;;;;5049922;28;20290;-31
2023/04/24 09:57:02;;;;;;;3.17;1.80;;;12.20;99.90;;;;;;5051446;28;20290;-31
2023/04/24 09:59:28;;;;;;;1.90;1.20;;;12.50;99.90;;;;;;5047842;28;20267;-32
2023/04/24 10:01:55;;;;;;;3.57;1.60;;;12.80;99.90;;;;;;5050596;28;20191;-31
2023/04/24 10:04:28;;;;;;;3.37;1.60;;;13.00;99.90;;;;;;5048814;28;20197;-31
2023/04/24 10:06:56;;;;;;;1.40;1.30;;;13.00;99.90;;;;;;5045741;28;20235;-32
2023/04/24 10:09:24;;;;;;;1.67;1.50;;;13.20;99.90;;;;;;5032392;28;20211;-31
2023/04/24 10:11:51;;;;;;;1.27;1.00;;;13.50;99.90;;;;;;5050595;28;20182;-31
2023/04/24 10:14:22;;;;;;;2.37;1.10;;;13.80;99.90;;;;;;5048836;28;20202;-32
2023/04/24 10:16:49;;;;;;;3.67;1.20;;;13.90;99.90;;;;;;5054868;28;20247;-31
2023/04/24 10:19:18;;;;;;;1.20;1.10;;;13.80;99.90;;;;;;5041248;28;20258;-31
2023/04/24 10:21:47;;;;;;;1.93;1.20;;;13.80;99.90;;;;;;5050106;28;20193;-31
2023/04/24 10:24:20;;;;;;;1.93;1.00;;;13.50;99.90;;;;;;5050505;28;20194;-33
2023/04/24 10:26:48;;;;;;;1.10;0.93;;;13.30;99.90;;;;;;5052615;28;20206;-31
2023/04/24 10:29:15;;;;;;;1.20;1.10;;;13.20;99.90;;;;;;5049071;28;20280;-31
2023/04/24 10:31:41;;;;;;;1.00;0.90;;;13.10;99.90;;;;;;5049303;28;20188;-32
2023/04/24 10:34:09;;;;;;;2.70;1.30;;;13.00;99.90;;;;;;5054257;28;20347;-31
2023/04/24 10:36:39;;;;;;;2.27;1.00;;;12.90;99.90;;;;;;5052423;28;20185;-30
2023/04/24 10:39:10;;;;;;;2.80;0.97;;;13.00;99.90;;;;;;5036636;28;20191;-31
2023/04/24 10:41:37;;;;;;;1.40;1.00;;;13.00;99.90;;;;;;5057975;28;20192;-31
2023/04/24 10:44:08;;;;;;;1.70;1.13;;;13.00;99.90;;;;;;5056537;28;20236;-31
2023/04/24 10:46:34;;;;;;;2.03;1.10;;;12.90;99.90;;;;;;5051701;28;20205;-31
2023/04/24 10:49:06;;;;;;;2.00;1.10;;;12.90;99.90;;;;;;5053228;28;20192;-31
2023/04/24 10:51:53;;;;;;;2.77;1.20;;;12.70;99.90;;;;;;5035693;28;20185;-31
2023/04/24 10:54:33;;;;;;;2.30;1.20;;;12.50;99.90;;;;;;5053121;28;20286;-31
2023/04/24 10:57:18;;;;;;;3.00;1.30;;;12.50;99.90;;;;;;5056094;28;20245;-30
2023/04/24 10:59:46;;;;;;;1.50;1.20;;;12.50;99.90;;;;;;5058450;28;20196;-31
2023/04/24 11:02:16;;;;;;;1.30;1.20;;;12.30;99.90;;;;;;5041592;28;20546;-31
2023/04/24 11:04:44;;;;;;;1.27;1.10;;;12.50;99.90;;;;;;5053100;28;20757;-31
2023/04/24 11:07:11;;;;;;;1.90;1.40;;;12.60;99.90;;;;;;5055264;28;20185;-31
2023/04/24 11:09:40;;;;;;;3.17;2.10;;;12.60;99.90;;;;;;5051450;28;20181;-31
2023/04/24 11:12:10;;;;;;;2.13;1.20;;;12.90;99.90;;;;;;5051629;28;20184;-31
2023/04/24 11:14:58;;;;;;;2.77;1.50;;;13.00;99.90;;;;;;5051348;28;20220;-30
2023/04/24 11:17:40;;;;;;;2.83;2.20;;;13.20;99.90;;;;;;5046131;28;20193;-31
2023/04/24 11:20:11;;;;;;;2.13;1.40;;;13.00;99.90;;;;;;5050857;28;20261;-31
2023/04/24 11:22:41;;;;;;;7.27;4.53;;;12.80;99.90;;;;;;5051308;28;20181;-31
2023/04/24 11:25:11;;;;;;;3.63;2.40;;;12.70;99.90;;;;;;5052392;28;20258;-31
2023/04/24 11:27:43;;;;;;;1.33;1.10;;;12.60;99.90;;;;;;5052891;28;20181;-31
2023/04/24 11:30:10;;;;;;;1.53;0.90;;;12.40;99.90;;;;;;5049890;28;20191;-30
2023/04/24 11:32:37;;;;;;;2.07;1.00;;;12.30;99.90;;;;;;5038737;28;20196;-31
2023/04/24 11:35:18;;;;;;;1.20;0.77;;;12.20;99.90;;;;;;5036165;28;20200;-32
2023/04/24 11:37:51;;;;;;;1.20;0.90;;;12.20;99.90;;;;;;5056362;28;20238;-30
2023/04/24 11:40:20;;;;;;;2.33;0.87;;;12.20;99.90;;;;;;5046661;28;20680;-31
2023/04/24 11:42:52;;;;;;;2.17;0.90;;;12.20;99.90;;;;;;5037315;28;20194;-31
2023/04/24 11:45:24;;;;;;;2.00;1.30;;;12.20;99.90;;;;;;5042795;28;20228;-31
2023/04/24 11:47:50;;;;;;;1.30;1.20;;;12.10;99.90;;;;;;5050733;28;20201;-31
2023/04/24 11:50:19;;;;;;;2.07;1.00;;;12.00;99.90;;;;;;5058641;28;20189;-31
2023/04/24 11:52:47;;;;;;;1.63;0.90;;;12.00;99.90;;;;;;5055244;28;20218;-31
2023/04/24 11:55:16;;;;;;;1.67;1.10;;;12.00;99.90;;;;;;5057143;28;20212;-31
2023/04/24 11:57:47;;;;;;;0.90;0.90;;;12.10;99.90;;;;;;5051615;28;20275;-31
2023/04/24 12:00:21;;;;;;;2.03;1.00;;;12.10;99.90;;;;;;5054166;28;20188;-31
2023/04/24 12:02:47;;;;;;;3.07;1.70;;;12.10;99.90;;;;;;5032189;28;20269;-31
2023/04/24 12:05:26;;;;;;;3.83;1.80;;;12.00;99.90;;;;;;5036238;28;20221;-31
2023/04/24 12:07:53;;;;;;;2.50;1.00;;;11.70;99.90;;;;;;5049993;28;20224;-32
2023/04/24 12:10:23;;;;;;;3.30;0.90;;;11.80;99.90;;;;;;5051115;28;20263;-31
2023/04/24 12:12:51;;;;;;;2.93;0.90;;;11.70;99.90;;;;;;5052346;28;20175;-32
2023/04/24 12:15:18;;;;;;;1.83;1.00;;;11.80;99.90;;;;;;5035976;28;20298;-32
2023/04/24 12:17:44;;;;;;;1.47;1.03;;;11.70;99.90;;;;;;5054712;28;20192;-32
2023/04/24 12:20:11;;;;;;;1.40;1.10;;;11.70;99.90;;;;;;5036746;28;20265;-31
2023/04/24 12:22:54;;;;;;;3.33;1.20;;;11.70;99.90;;;;;;5050011;28;20226;-31
2023/04/24 12:25:22;;;;;;;1.77;1.10;;;11.60;99.90;;;;;;5049869;28;20216;-32
2023/04/24 12:27:54;;;;;;;1.77;1.03;;;11.50;99.90;;;;;;5053885;28;20275;-31
2023/04/24 12:30:20;;;;;;;1.60;1.30;;;11.50;99.90;;;;;;5049415;28;20183;-32
2023/04/24 12:32:51;;;;;;;1.43;1.10;;;11.50;99.90;;;;;;5047632;28;20183;-29
2023/04/24 12:35:22;;;;;;;1.47;1.37;;;11.30;99.90;;;;;;5049602;28;20206;-31
2023/04/24 12:37:48;;;;;;;1.40;1.30;;;11.20;99.90;;;;;;5057858;28;20640;-31
2023/04/24 12:40:15;;;;;;;1.40;1.30;;;11.20;99.90;;;;;;5050881;28;20209;-31
2023/04/24 12:42:49;;;;;;;1.83;1.33;;;11.30;99.90;;;;;;5033289;28;20209;-31
2023/04/24 12:45:16;;;;;;;1.53;1.43;;;11.30;99.90;;;;;;5053485;28;20211;-30
2023/04/24 12:47:43;;;;;;;4.37;1.30;;;11.40;99.90;;;;;;5049118;28;20190;-31
2023/04/24 12:50:14;;;;;;;1.60;1.40;;;11.60;99.90;;;;;;5054048;28;20180;-31
2023/04/24 12:52:41;;;;;;;2.23;1.30;;;11.70;99.90;;;;;;5058774;28;20280;-31
2023/04/24 12:55:08;;;;;;;2.13;1.20;;;11.90;99.90;;;;;;5049921;28;20262;-31